<?xml version="1.0" encoding="utf-8"?>
<gpx xmlns:xsi="http://www.w3.org/2001/XMLSchema-instance" xmlns:xsd="http://www.w3.org/2001/XMLSchema" version="1.1" creator="Shapelink.com" xmlns="http://www.topografix.com/GPX/1/1" xmlns:gpxtpx="http://www.garmin.com/xmlschemas/TrackPointExtension/v1">
  <metadata>
    <name>Cycling 16.94 km, 2012-11-25</name>
    <desc></desc>
    <author><name>Ulf Andrae</name></author> 
    <time>2012-11-25T14:56:10Z</time>
  </metadata>
  <trk>
    <name>Cycling 16.94 km, 2012-11-25</name>
    <trkseg>
      <trkpt lat="58.6616651528" lon="16.0059793666">
        <ele>73.68</ele>
        <time>2012-11-25T14:56:10Z</time>
      </trkpt>
      <trkpt lat="58.6616642307" lon="16.005978277">
        <ele>73.68</ele>
        <time>2012-11-25T14:56:11Z</time>
      </trkpt>
      <trkpt lat="58.6616418511" lon="16.0059743375">
        <ele>73.68</ele>
        <time>2012-11-25T14:56:32Z</time>
      </trkpt>
      <trkpt lat="58.6616393365" lon="16.0059307516">
        <ele>73.2</ele>
        <time>2012-11-25T14:56:37Z</time>
      </trkpt>
      <trkpt lat="58.6616462935" lon="16.0059568193">
        <ele>73.68</ele>
        <time>2012-11-25T14:56:51Z</time>
      </trkpt>
      <trkpt lat="58.6616341397" lon="16.0059543885">
        <ele>73.68</ele>
        <time>2012-11-25T14:57:06Z</time>
      </trkpt>
      <trkpt lat="58.6617481336" lon="16.0058983136">
        <ele>73.68</ele>
        <time>2012-11-25T14:57:14Z</time>
      </trkpt>
      <trkpt lat="58.6618507281" lon="16.0062640999">
        <ele>73.68</ele>
        <time>2012-11-25T14:57:20Z</time>
      </trkpt>
      <trkpt lat="58.6614443734" lon="16.0080225393">
        <ele>74.64</ele>
        <time>2012-11-25T14:57:38Z</time>
      </trkpt>
      <trkpt lat="58.6611836124" lon="16.0090130288">
        <ele>75.12</ele>
        <time>2012-11-25T14:57:48Z</time>
      </trkpt>
      <trkpt lat="58.6611448042" lon="16.0097534861">
        <ele>76.08</ele>
        <time>2012-11-25T14:57:56Z</time>
      </trkpt>
      <trkpt lat="58.6611811817" lon="16.0098521411">
        <ele>75.6</ele>
        <time>2012-11-25T14:57:57Z</time>
      </trkpt>
      <trkpt lat="58.6617056374" lon="16.0112715326">
        <ele>77.52</ele>
        <time>2012-11-25T14:58:13Z</time>
      </trkpt>
      <trkpt lat="58.6620394047" lon="16.0117114987">
        <ele>78.48</ele>
        <time>2012-11-25T14:58:24Z</time>
      </trkpt>
      <trkpt lat="58.6625613458" lon="16.0115634743">
        <ele>78</ele>
        <time>2012-11-25T14:58:32Z</time>
      </trkpt>
      <trkpt lat="58.662899388" lon="16.0111396015">
        <ele>76.56</ele>
        <time>2012-11-25T14:58:37Z</time>
      </trkpt>
      <trkpt lat="58.6631021462" lon="16.01093743">
        <ele>75.6</ele>
        <time>2012-11-25T14:58:40Z</time>
      </trkpt>
      <trkpt lat="58.6639518198" lon="16.0103797819">
        <ele>75.12</ele>
        <time>2012-11-25T14:58:52Z</time>
      </trkpt>
      <trkpt lat="58.664214341" lon="16.0104003176">
        <ele>75.12</ele>
        <time>2012-11-25T14:58:56Z</time>
      </trkpt>
      <trkpt lat="58.6644629482" lon="16.0104021616">
        <ele>75.6</ele>
        <time>2012-11-25T14:59:00Z</time>
      </trkpt>
      <trkpt lat="58.6648149882" lon="16.0102017503">
        <ele>75.6</ele>
        <time>2012-11-25T14:59:06Z</time>
      </trkpt>
      <trkpt lat="58.6649057642" lon="16.0100682266">
        <ele>76.08</ele>
        <time>2012-11-25T14:59:08Z</time>
      </trkpt>
      <trkpt lat="58.664986901" lon="16.0099229682">
        <ele>76.08</ele>
        <time>2012-11-25T14:59:10Z</time>
      </trkpt>
      <trkpt lat="58.6654937547" lon="16.0083991382">
        <ele>75.12</ele>
        <time>2012-11-25T14:59:25Z</time>
      </trkpt>
      <trkpt lat="58.6659448687" lon="16.007203795">
        <ele>74.64</ele>
        <time>2012-11-25T14:59:36Z</time>
      </trkpt>
      <trkpt lat="58.6664574221" lon="16.0069592949">
        <ele>73.68</ele>
        <time>2012-11-25T14:59:44Z</time>
      </trkpt>
      <trkpt lat="58.6668950412" lon="16.0072560143">
        <ele>71.27</ele>
        <time>2012-11-25T14:59:50Z</time>
      </trkpt>
      <trkpt lat="58.6671374459" lon="16.0073997639">
        <ele>69.83</ele>
        <time>2012-11-25T14:59:53Z</time>
      </trkpt>
      <trkpt lat="58.6673827842" lon="16.0075497162">
        <ele>68.39</ele>
        <time>2012-11-25T14:59:56Z</time>
      </trkpt>
      <trkpt lat="58.6674592271" lon="16.0075999238">
        <ele>68.39</ele>
        <time>2012-11-25T14:59:57Z</time>
      </trkpt>
      <trkpt lat="58.6676064972" lon="16.0077396501">
        <ele>68.87</ele>
        <time>2012-11-25T14:59:59Z</time>
      </trkpt>
      <trkpt lat="58.6677795835" lon="16.0080513731">
        <ele>69.83</ele>
        <time>2012-11-25T15:00:03Z</time>
      </trkpt>
      <trkpt lat="58.667860385" lon="16.0089256894">
        <ele>73.2</ele>
        <time>2012-11-25T15:00:15Z</time>
      </trkpt>
      <trkpt lat="58.6679070722" lon="16.0099644586">
        <ele>76.56</ele>
        <time>2012-11-25T15:00:30Z</time>
      </trkpt>
      <trkpt lat="58.6680830084" lon="16.0110816825">
        <ele>77.04</ele>
        <time>2012-11-25T15:00:45Z</time>
      </trkpt>
      <trkpt lat="58.6683794763" lon="16.0121307615">
        <ele>78</ele>
        <time>2012-11-25T15:00:58Z</time>
      </trkpt>
      <trkpt lat="58.6684372276" lon="16.0122580826">
        <ele>78</ele>
        <time>2012-11-25T15:01:00Z</time>
      </trkpt>
      <trkpt lat="58.6687155906" lon="16.012687739">
        <ele>79.45</ele>
        <time>2012-11-25T15:01:08Z</time>
      </trkpt>
      <trkpt lat="58.669092441" lon="16.0131807625">
        <ele>79.45</ele>
        <time>2012-11-25T15:01:17Z</time>
      </trkpt>
      <trkpt lat="58.6693218537" lon="16.0142087191">
        <ele>80.41</ele>
        <time>2012-11-25T15:01:29Z</time>
      </trkpt>
      <trkpt lat="58.6693311576" lon="16.0152311437">
        <ele>82.33</ele>
        <time>2012-11-25T15:01:43Z</time>
      </trkpt>
      <trkpt lat="58.6691677105" lon="16.0164525546">
        <ele>82.81</ele>
        <time>2012-11-25T15:01:59Z</time>
      </trkpt>
      <trkpt lat="58.6690251343" lon="16.0174287949">
        <ele>82.81</ele>
        <time>2012-11-25T15:02:10Z</time>
      </trkpt>
      <trkpt lat="58.669001665" lon="16.0176004563">
        <ele>82.81</ele>
        <time>2012-11-25T15:02:12Z</time>
      </trkpt>
      <trkpt lat="58.6689870805" lon="16.0177783202">
        <ele>82.33</ele>
        <time>2012-11-25T15:02:14Z</time>
      </trkpt>
      <trkpt lat="58.6689797044" lon="16.0179581121">
        <ele>82.81</ele>
        <time>2012-11-25T15:02:16Z</time>
      </trkpt>
      <trkpt lat="58.6690799519" lon="16.018984979">
        <ele>83.29</ele>
        <time>2012-11-25T15:02:27Z</time>
      </trkpt>
      <trkpt lat="58.6690611765" lon="16.019546818">
        <ele>83.77</ele>
        <time>2012-11-25T15:02:33Z</time>
      </trkpt>
      <trkpt lat="58.6689035129" lon="16.0201787297">
        <ele>83.29</ele>
        <time>2012-11-25T15:02:40Z</time>
      </trkpt>
      <trkpt lat="58.6688596755" lon="16.0203531571">
        <ele>83.29</ele>
        <time>2012-11-25T15:02:42Z</time>
      </trkpt>
      <trkpt lat="58.6686668918" lon="16.0211014096">
        <ele>84.25</ele>
        <time>2012-11-25T15:02:51Z</time>
      </trkpt>
      <trkpt lat="58.6686286703" lon="16.0219926573">
        <ele>87.62</ele>
        <time>2012-11-25T15:03:04Z</time>
      </trkpt>
      <trkpt lat="58.6686349567" lon="16.0220564436">
        <ele>88.1</ele>
        <time>2012-11-25T15:03:05Z</time>
      </trkpt>
      <trkpt lat="58.6688227952" lon="16.0227958113">
        <ele>90.02</ele>
        <time>2012-11-25T15:03:18Z</time>
      </trkpt>
      <trkpt lat="58.6689670477" lon="16.0231509525">
        <ele>90.5</ele>
        <time>2012-11-25T15:03:24Z</time>
      </trkpt>
      <trkpt lat="58.6691797804" lon="16.0238151345">
        <ele>90.02</ele>
        <time>2012-11-25T15:03:33Z</time>
      </trkpt>
      <trkpt lat="58.669215152" lon="16.024125265">
        <ele>90.5</ele>
        <time>2012-11-25T15:03:37Z</time>
      </trkpt>
      <trkpt lat="58.6691251304" lon="16.0247777961">
        <ele>93.39</ele>
        <time>2012-11-25T15:03:49Z</time>
      </trkpt>
      <trkpt lat="58.6690457538" lon="16.0255219415">
        <ele>95.79</ele>
        <time>2012-11-25T15:04:02Z</time>
      </trkpt>
      <trkpt lat="58.6691273097" lon="16.0260790028">
        <ele>96.27</ele>
        <time>2012-11-25T15:04:10Z</time>
      </trkpt>
      <trkpt lat="58.6693822872" lon="16.0272073746">
        <ele>94.35</ele>
        <time>2012-11-25T15:04:22Z</time>
      </trkpt>
      <trkpt lat="58.6693879031" lon="16.0277882405">
        <ele>93.87</ele>
        <time>2012-11-25T15:04:27Z</time>
      </trkpt>
      <trkpt lat="58.6692075245" lon="16.0289790574">
        <ele>90.5</ele>
        <time>2012-11-25T15:04:38Z</time>
      </trkpt>
      <trkpt lat="58.6691297404" lon="16.0294295009">
        <ele>89.06</ele>
        <time>2012-11-25T15:04:41Z</time>
      </trkpt>
      <trkpt lat="58.6690774374" lon="16.0298563913">
        <ele>88.58</ele>
        <time>2012-11-25T15:04:44Z</time>
      </trkpt>
      <trkpt lat="58.6690809578" lon="16.0301511828">
        <ele>87.62</ele>
        <time>2012-11-25T15:04:46Z</time>
      </trkpt>
      <trkpt lat="58.6691650283" lon="16.030551251">
        <ele>87.14</ele>
        <time>2012-11-25T15:04:49Z</time>
      </trkpt>
      <trkpt lat="58.6694844626" lon="16.0313472804">
        <ele>88.58</ele>
        <time>2012-11-25T15:04:58Z</time>
      </trkpt>
      <trkpt lat="58.6697368417" lon="16.0313779581">
        <ele>90.5</ele>
        <time>2012-11-25T15:05:05Z</time>
      </trkpt>
      <trkpt lat="58.6700703576" lon="16.0309263412">
        <ele>92.9</ele>
        <time>2012-11-25T15:05:15Z</time>
      </trkpt>
      <trkpt lat="58.6708870064" lon="16.030212706">
        <ele>90.02</ele>
        <time>2012-11-25T15:05:30Z</time>
      </trkpt>
      <trkpt lat="58.6715713888" lon="16.0290754493">
        <ele>87.14</ele>
        <time>2012-11-25T15:05:43Z</time>
      </trkpt>
      <trkpt lat="58.6717270408" lon="16.0287531652">
        <ele>86.66</ele>
        <time>2012-11-25T15:05:46Z</time>
      </trkpt>
      <trkpt lat="58.6720843613" lon="16.0282734688">
        <ele>85.69</ele>
        <time>2012-11-25T15:05:52Z</time>
      </trkpt>
      <trkpt lat="58.6726083141" lon="16.0280534439">
        <ele>82.81</ele>
        <time>2012-11-25T15:05:59Z</time>
      </trkpt>
      <trkpt lat="58.6728522275" lon="16.0282711219">
        <ele>83.29</ele>
        <time>2012-11-25T15:06:03Z</time>
      </trkpt>
      <trkpt lat="58.6730963085" lon="16.0290625412">
        <ele>83.77</ele>
        <time>2012-11-25T15:06:11Z</time>
      </trkpt>
      <trkpt lat="58.6731301714" lon="16.0294009186">
        <ele>83.29</ele>
        <time>2012-11-25T15:06:14Z</time>
      </trkpt>
      <trkpt lat="58.6729881819" lon="16.0306879599">
        <ele>80.89</ele>
        <time>2012-11-25T15:06:25Z</time>
      </trkpt>
      <trkpt lat="58.6730824783" lon="16.03165498">
        <ele>79.45</ele>
        <time>2012-11-25T15:06:32Z</time>
      </trkpt>
      <trkpt lat="58.6732662935" lon="16.0323227663">
        <ele>80.89</ele>
        <time>2012-11-25T15:06:38Z</time>
      </trkpt>
      <trkpt lat="58.6733859032" lon="16.0328033008">
        <ele>79.93</ele>
        <time>2012-11-25T15:06:43Z</time>
      </trkpt>
      <trkpt lat="58.6734199338" lon="16.0330105852">
        <ele>78.97</ele>
        <time>2012-11-25T15:06:45Z</time>
      </trkpt>
      <trkpt lat="58.6732061952" lon="16.0342179984">
        <ele>78.97</ele>
        <time>2012-11-25T15:06:55Z</time>
      </trkpt>
      <trkpt lat="58.6731116474" lon="16.034652181">
        <ele>79.93</ele>
        <time>2012-11-25T15:06:59Z</time>
      </trkpt>
      <trkpt lat="58.6729856674" lon="16.0354167782">
        <ele>81.37</ele>
        <time>2012-11-25T15:07:09Z</time>
      </trkpt>
      <trkpt lat="58.6729732621" lon="16.0355822369">
        <ele>81.37</ele>
        <time>2012-11-25T15:07:11Z</time>
      </trkpt>
      <trkpt lat="58.6729884334" lon="16.0360130668">
        <ele>81.37</ele>
        <time>2012-11-25T15:07:16Z</time>
      </trkpt>
      <trkpt lat="58.6732615158" lon="16.0365914181">
        <ele>81.37</ele>
        <time>2012-11-25T15:07:27Z</time>
      </trkpt>
      <trkpt lat="58.673361931" lon="16.0366931744">
        <ele>80.89</ele>
        <time>2012-11-25T15:07:29Z</time>
      </trkpt>
      <trkpt lat="58.6735179182" lon="16.0372436978">
        <ele>81.37</ele>
        <time>2012-11-25T15:07:36Z</time>
      </trkpt>
      <trkpt lat="58.6734890845" lon="16.0378537327">
        <ele>81.85</ele>
        <time>2012-11-25T15:07:43Z</time>
      </trkpt>
      <trkpt lat="58.6735268869" lon="16.0383852292">
        <ele>82.81</ele>
        <time>2012-11-25T15:07:49Z</time>
      </trkpt>
      <trkpt lat="58.6736301519" lon="16.0387490038">
        <ele>82.33</ele>
        <time>2012-11-25T15:07:53Z</time>
      </trkpt>
      <trkpt lat="58.6738814414" lon="16.0393152013">
        <ele>82.81</ele>
        <time>2012-11-25T15:08:01Z</time>
      </trkpt>
      <trkpt lat="58.6744711921" lon="16.0400019307">
        <ele>81.37</ele>
        <time>2012-11-25T15:08:14Z</time>
      </trkpt>
      <trkpt lat="58.674817197" lon="16.0405278951">
        <ele>82.33</ele>
        <time>2012-11-25T15:08:23Z</time>
      </trkpt>
      <trkpt lat="58.6750757787" lon="16.0413776524">
        <ele>85.21</ele>
        <time>2012-11-25T15:08:38Z</time>
      </trkpt>
      <trkpt lat="58.6752085481" lon="16.0417096596">
        <ele>88.58</ele>
        <time>2012-11-25T15:08:48Z</time>
      </trkpt>
      <trkpt lat="58.6754548922" lon="16.0419742763">
        <ele>90.5</ele>
        <time>2012-11-25T15:09:03Z</time>
      </trkpt>
      <trkpt lat="58.6757664476" lon="16.0422113165">
        <ele>90.98</ele>
        <time>2012-11-25T15:09:16Z</time>
      </trkpt>
      <trkpt lat="58.676104825" lon="16.0424641985">
        <ele>90.5</ele>
        <time>2012-11-25T15:09:24Z</time>
      </trkpt>
      <trkpt lat="58.6765597109" lon="16.0431398638">
        <ele>90.02</ele>
        <time>2012-11-25T15:09:36Z</time>
      </trkpt>
      <trkpt lat="58.6767737847" lon="16.0436592065">
        <ele>90.98</ele>
        <time>2012-11-25T15:09:43Z</time>
      </trkpt>
      <trkpt lat="58.6768492218" lon="16.0437600408">
        <ele>91.94</ele>
        <time>2012-11-25T15:09:45Z</time>
      </trkpt>
      <trkpt lat="58.6769660655" lon="16.0438845959">
        <ele>91.94</ele>
        <time>2012-11-25T15:09:48Z</time>
      </trkpt>
      <trkpt lat="58.6771481205" lon="16.0439895373">
        <ele>91.46</ele>
        <time>2012-11-25T15:09:52Z</time>
      </trkpt>
      <trkpt lat="58.6774518806" lon="16.0440189578">
        <ele>91.46</ele>
        <time>2012-11-25T15:09:58Z</time>
      </trkpt>
      <trkpt lat="58.6781009752" lon="16.0445664637">
        <ele>92.42</ele>
        <time>2012-11-25T15:10:12Z</time>
      </trkpt>
      <trkpt lat="58.6782961059" lon="16.044944739">
        <ele>92.42</ele>
        <time>2012-11-25T15:10:18Z</time>
      </trkpt>
      <trkpt lat="58.678500792" lon="16.0455874633">
        <ele>93.87</ele>
        <time>2012-11-25T15:10:28Z</time>
      </trkpt>
      <trkpt lat="58.6788487248" lon="16.0461617075">
        <ele>95.31</ele>
        <time>2012-11-25T15:10:39Z</time>
      </trkpt>
      <trkpt lat="58.6789108347" lon="16.0462902859">
        <ele>95.31</ele>
        <time>2012-11-25T15:10:41Z</time>
      </trkpt>
      <trkpt lat="58.6793653853" lon="16.0472465772">
        <ele>95.31</ele>
        <time>2012-11-25T15:10:54Z</time>
      </trkpt>
      <trkpt lat="58.6795366276" lon="16.0475966055">
        <ele>95.31</ele>
        <time>2012-11-25T15:11:01Z</time>
      </trkpt>
      <trkpt lat="58.6802298948" lon="16.0482474603">
        <ele>93.87</ele>
        <time>2012-11-25T15:11:15Z</time>
      </trkpt>
      <trkpt lat="58.6808118504" lon="16.0492222756">
        <ele>96.75</ele>
        <time>2012-11-25T15:11:31Z</time>
      </trkpt>
      <trkpt lat="58.6811638065" lon="16.0498598032">
        <ele>98.19</ele>
        <time>2012-11-25T15:11:44Z</time>
      </trkpt>
      <trkpt lat="58.6814403255" lon="16.0503893718">
        <ele>97.71</ele>
        <time>2012-11-25T15:11:53Z</time>
      </trkpt>
      <trkpt lat="58.681577621" lon="16.0506439302">
        <ele>95.79</ele>
        <time>2012-11-25T15:11:56Z</time>
      </trkpt>
      <trkpt lat="58.6817720812" lon="16.0512971319">
        <ele>96.75</ele>
        <time>2012-11-25T15:12:04Z</time>
      </trkpt>
      <trkpt lat="58.6816497892" lon="16.0518998746">
        <ele>95.31</ele>
        <time>2012-11-25T15:12:11Z</time>
      </trkpt>
      <trkpt lat="58.6814824026" lon="16.0520670097">
        <ele>97.71</ele>
        <time>2012-11-25T15:12:16Z</time>
      </trkpt>
      <trkpt lat="58.6813710909" lon="16.0521561094">
        <ele>100.11</ele>
        <time>2012-11-25T15:12:22Z</time>
      </trkpt>
      <trkpt lat="58.6811485514" lon="16.0525504779">
        <ele>103.48</ele>
        <time>2012-11-25T15:12:38Z</time>
      </trkpt>
      <trkpt lat="58.6809971742" lon="16.0527956486">
        <ele>106.36</ele>
        <time>2012-11-25T15:12:49Z</time>
      </trkpt>
      <trkpt lat="58.6807934102" lon="16.0531635303">
        <ele>109.25</ele>
        <time>2012-11-25T15:13:03Z</time>
      </trkpt>
      <trkpt lat="58.6807126924" lon="16.0532256402">
        <ele>110.69</ele>
        <time>2012-11-25T15:13:08Z</time>
      </trkpt>
      <trkpt lat="58.6805135384" lon="16.053224802">
        <ele>114.05</ele>
        <time>2012-11-25T15:13:20Z</time>
      </trkpt>
      <trkpt lat="58.6802428868" lon="16.0533676296">
        <ele>116.46</ele>
        <time>2012-11-25T15:13:36Z</time>
      </trkpt>
      <trkpt lat="58.6800270528" lon="16.0536506027">
        <ele>118.38</ele>
        <time>2012-11-25T15:13:50Z</time>
      </trkpt>
      <trkpt lat="58.6797014158" lon="16.0539294686">
        <ele>120.3</ele>
        <time>2012-11-25T15:14:06Z</time>
      </trkpt>
      <trkpt lat="58.6793593504" lon="16.0540212505">
        <ele>122.22</ele>
        <time>2012-11-25T15:14:19Z</time>
      </trkpt>
      <trkpt lat="58.678974621" lon="16.0545294452">
        <ele>122.22</ele>
        <time>2012-11-25T15:14:32Z</time>
      </trkpt>
      <trkpt lat="58.678817125" lon="16.0547731072">
        <ele>122.22</ele>
        <time>2012-11-25T15:14:37Z</time>
      </trkpt>
      <trkpt lat="58.6785923224" lon="16.0551534779">
        <ele>122.22</ele>
        <time>2012-11-25T15:14:44Z</time>
      </trkpt>
      <trkpt lat="58.6783999577" lon="16.0555863194">
        <ele>121.74</ele>
        <time>2012-11-25T15:14:51Z</time>
      </trkpt>
      <trkpt lat="58.678005673" lon="16.056603631">
        <ele>120.78</ele>
        <time>2012-11-25T15:15:04Z</time>
      </trkpt>
      <trkpt lat="58.6779077724" lon="16.0569478758">
        <ele>120.3</ele>
        <time>2012-11-25T15:15:08Z</time>
      </trkpt>
      <trkpt lat="58.6776460055" lon="16.058091335">
        <ele>117.9</ele>
        <time>2012-11-25T15:15:21Z</time>
      </trkpt>
      <trkpt lat="58.6776204407" lon="16.0582138784">
        <ele>117.9</ele>
        <time>2012-11-25T15:15:22Z</time>
      </trkpt>
      <trkpt lat="58.6775663774" lon="16.0584537685">
        <ele>117.42</ele>
        <time>2012-11-25T15:15:24Z</time>
      </trkpt>
      <trkpt lat="58.6775574926" lon="16.05888661">
        <ele>119.82</ele>
        <time>2012-11-25T15:15:29Z</time>
      </trkpt>
      <trkpt lat="58.6775683891" lon="16.0589382425">
        <ele>120.3</ele>
        <time>2012-11-25T15:15:30Z</time>
      </trkpt>
      <trkpt lat="58.6777650286" lon="16.059588762">
        <ele>121.26</ele>
        <time>2012-11-25T15:15:42Z</time>
      </trkpt>
      <trkpt lat="58.677813895" lon="16.059824042">
        <ele>121.26</ele>
        <time>2012-11-25T15:15:45Z</time>
      </trkpt>
      <trkpt lat="58.67796259" lon="16.0612020269">
        <ele>119.34</ele>
        <time>2012-11-25T15:16:00Z</time>
      </trkpt>
      <trkpt lat="58.6780838761" lon="16.0621321667">
        <ele>118.86</ele>
        <time>2012-11-25T15:16:12Z</time>
      </trkpt>
      <trkpt lat="58.6782214232" lon="16.0621166602">
        <ele>117.42</ele>
        <time>2012-11-25T15:16:20Z</time>
      </trkpt>
      <trkpt lat="58.6786173005" lon="16.0619375389">
        <ele>117.42</ele>
        <time>2012-11-25T15:16:31Z</time>
      </trkpt>
      <trkpt lat="58.6789022014" lon="16.0618504509">
        <ele>118.38</ele>
        <time>2012-11-25T15:16:41Z</time>
      </trkpt>
      <trkpt lat="58.6792342085" lon="16.0617963877">
        <ele>117.9</ele>
        <time>2012-11-25T15:16:53Z</time>
      </trkpt>
      <trkpt lat="58.6794400681" lon="16.0616305936">
        <ele>117.9</ele>
        <time>2012-11-25T15:17:03Z</time>
      </trkpt>
      <trkpt lat="58.6795414053" lon="16.0615518875">
        <ele>119.34</ele>
        <time>2012-11-25T15:17:07Z</time>
      </trkpt>
      <trkpt lat="58.6798630189" lon="16.0614190344">
        <ele>119.82</ele>
        <time>2012-11-25T15:17:18Z</time>
      </trkpt>
      <trkpt lat="58.680141801" lon="16.0610328801">
        <ele>119.34</ele>
        <time>2012-11-25T15:17:28Z</time>
      </trkpt>
      <trkpt lat="58.6803510971" lon="16.0607300419">
        <ele>118.38</ele>
        <time>2012-11-25T15:17:37Z</time>
      </trkpt>
      <trkpt lat="58.6806851998" lon="16.0605038144">
        <ele>117.42</ele>
        <time>2012-11-25T15:17:48Z</time>
      </trkpt>
      <trkpt lat="58.6810374074" lon="16.0606064927">
        <ele>116.94</ele>
        <time>2012-11-25T15:17:59Z</time>
      </trkpt>
      <trkpt lat="58.681335384" lon="16.0610385798">
        <ele>115.98</ele>
        <time>2012-11-25T15:18:10Z</time>
      </trkpt>
      <trkpt lat="58.6814456061" lon="16.0612273403">
        <ele>115.01</ele>
        <time>2012-11-25T15:18:15Z</time>
      </trkpt>
      <trkpt lat="58.6816659663" lon="16.0614163522">
        <ele>115.01</ele>
        <time>2012-11-25T15:18:27Z</time>
      </trkpt>
      <trkpt lat="58.6819925252" lon="16.061243182">
        <ele>115.5</ele>
        <time>2012-11-25T15:18:38Z</time>
      </trkpt>
      <trkpt lat="58.6822832096" lon="16.0612606164">
        <ele>117.9</ele>
        <time>2012-11-25T15:18:50Z</time>
      </trkpt>
      <trkpt lat="58.6825883109" lon="16.0617768578">
        <ele>118.86</ele>
        <time>2012-11-25T15:19:03Z</time>
      </trkpt>
      <trkpt lat="58.6826811824" lon="16.0619238764">
        <ele>119.82</ele>
        <time>2012-11-25T15:19:07Z</time>
      </trkpt>
      <trkpt lat="58.6828070786" lon="16.061936114">
        <ele>119.82</ele>
        <time>2012-11-25T15:19:12Z</time>
      </trkpt>
      <trkpt lat="58.6828517541" lon="16.0619276483">
        <ele>120.3</ele>
        <time>2012-11-25T15:19:14Z</time>
      </trkpt>
      <trkpt lat="58.6828792468" lon="16.0618917737">
        <ele>120.3</ele>
        <time>2012-11-25T15:19:16Z</time>
      </trkpt>
      <trkpt lat="58.6829228327" lon="16.0618567374">
        <ele>120.3</ele>
        <time>2012-11-25T15:19:23Z</time>
      </trkpt>
      <trkpt lat="58.6827409454" lon="16.06208154">
        <ele>119.34</ele>
        <time>2012-11-25T15:19:34Z</time>
      </trkpt>
      <trkpt lat="58.6828605551" lon="16.0627406929">
        <ele>119.34</ele>
        <time>2012-11-25T15:19:45Z</time>
      </trkpt>
      <trkpt lat="58.6828848626" lon="16.0627788305">
        <ele>119.34</ele>
        <time>2012-11-25T15:19:53Z</time>
      </trkpt>
      <trkpt lat="58.6828996986" lon="16.0627346579">
        <ele>118.86</ele>
        <time>2012-11-25T15:20:04Z</time>
      </trkpt>
      <trkpt lat="58.6829642393" lon="16.0626699496">
        <ele>119.34</ele>
        <time>2012-11-25T15:20:14Z</time>
      </trkpt>
      <trkpt lat="58.6830369104" lon="16.0626076721">
        <ele>119.34</ele>
        <time>2012-11-25T15:20:23Z</time>
      </trkpt>
      <trkpt lat="58.6830936559" lon="16.0624609049">
        <ele>119.34</ele>
        <time>2012-11-25T15:20:36Z</time>
      </trkpt>
      <trkpt lat="58.6831871979" lon="16.0623582266">
        <ele>119.82</ele>
        <time>2012-11-25T15:20:48Z</time>
      </trkpt>
      <trkpt lat="58.683370091" lon="16.0621521156">
        <ele>120.78</ele>
        <time>2012-11-25T15:21:01Z</time>
      </trkpt>
      <trkpt lat="58.683554912" lon="16.0619196016">
        <ele>121.26</ele>
        <time>2012-11-25T15:21:15Z</time>
      </trkpt>
      <trkpt lat="58.6836372223" lon="16.0618026741">
        <ele>120.78</ele>
        <time>2012-11-25T15:21:20Z</time>
      </trkpt>
      <trkpt lat="58.6837689858" lon="16.0616830643">
        <ele>120.3</ele>
        <time>2012-11-25T15:21:32Z</time>
      </trkpt>
      <trkpt lat="58.683875436" lon="16.0616357904">
        <ele>120.3</ele>
        <time>2012-11-25T15:21:46Z</time>
      </trkpt>
      <trkpt lat="58.6839316785" lon="16.0616314318">
        <ele>120.3</ele>
        <time>2012-11-25T15:21:52Z</time>
      </trkpt>
      <trkpt lat="58.6841170024" lon="16.0614372231">
        <ele>121.26</ele>
        <time>2012-11-25T15:22:07Z</time>
      </trkpt>
      <trkpt lat="58.6842550524" lon="16.0611636378">
        <ele>122.22</ele>
        <time>2012-11-25T15:22:21Z</time>
      </trkpt>
      <trkpt lat="58.6843205988" lon="16.0610327963">
        <ele>123.19</ele>
        <time>2012-11-25T15:22:28Z</time>
      </trkpt>
      <trkpt lat="58.6844344251" lon="16.0608312115">
        <ele>122.71</ele>
        <time>2012-11-25T15:22:42Z</time>
      </trkpt>
      <trkpt lat="58.6845624167" lon="16.0606932454">
        <ele>123.19</ele>
        <time>2012-11-25T15:22:57Z</time>
      </trkpt>
      <trkpt lat="58.684626203" lon="16.0605541896">
        <ele>124.15</ele>
        <time>2012-11-25T15:23:08Z</time>
      </trkpt>
      <trkpt lat="58.6847498361" lon="16.0603276268">
        <ele>123.67</ele>
        <time>2012-11-25T15:23:19Z</time>
      </trkpt>
      <trkpt lat="58.6849286221" lon="16.0600064322">
        <ele>123.67</ele>
        <time>2012-11-25T15:23:32Z</time>
      </trkpt>
      <trkpt lat="58.6851020437" lon="16.0597421508">
        <ele>123.67</ele>
        <time>2012-11-25T15:23:44Z</time>
      </trkpt>
      <trkpt lat="58.6851620581" lon="16.0596793704">
        <ele>123.67</ele>
        <time>2012-11-25T15:23:53Z</time>
      </trkpt>
      <trkpt lat="58.6852731183" lon="16.0595243052">
        <ele>123.19</ele>
        <time>2012-11-25T15:24:01Z</time>
      </trkpt>
      <trkpt lat="58.6854633037" lon="16.0593019333">
        <ele>122.71</ele>
        <time>2012-11-25T15:24:13Z</time>
      </trkpt>
      <trkpt lat="58.6855107453" lon="16.0592354648">
        <ele>122.71</ele>
        <time>2012-11-25T15:24:19Z</time>
      </trkpt>
      <trkpt lat="58.6856489629" lon="16.0591127537">
        <ele>122.71</ele>
        <time>2012-11-25T15:24:31Z</time>
      </trkpt>
      <trkpt lat="58.685859181" lon="16.0591192078">
        <ele>121.26</ele>
        <time>2012-11-25T15:24:43Z</time>
      </trkpt>
      <trkpt lat="58.686015252" lon="16.0592109058">
        <ele>121.74</ele>
        <time>2012-11-25T15:24:56Z</time>
      </trkpt>
      <trkpt lat="58.6861789506" lon="16.0592438467">
        <ele>121.74</ele>
        <time>2012-11-25T15:25:10Z</time>
      </trkpt>
      <trkpt lat="58.6862919386" lon="16.0592847504">
        <ele>121.74</ele>
        <time>2012-11-25T15:25:22Z</time>
      </trkpt>
      <trkpt lat="58.6865211837" lon="16.0591408331">
        <ele>122.22</ele>
        <time>2012-11-25T15:25:40Z</time>
      </trkpt>
      <trkpt lat="58.6866443977" lon="16.0590626299">
        <ele>122.71</ele>
        <time>2012-11-25T15:25:50Z</time>
      </trkpt>
      <trkpt lat="58.6869121995" lon="16.0588590335">
        <ele>122.22</ele>
        <time>2012-11-25T15:26:01Z</time>
      </trkpt>
      <trkpt lat="58.6872501578" lon="16.0588149447">
        <ele>118.38</ele>
        <time>2012-11-25T15:26:11Z</time>
      </trkpt>
      <trkpt lat="58.6874341406" lon="16.0587875359">
        <ele>116.46</ele>
        <time>2012-11-25T15:26:16Z</time>
      </trkpt>
      <trkpt lat="58.6876646429" lon="16.0587378312">
        <ele>113.57</ele>
        <time>2012-11-25T15:26:23Z</time>
      </trkpt>
      <trkpt lat="58.6878057942" lon="16.0587033816">
        <ele>111.65</ele>
        <time>2012-11-25T15:26:27Z</time>
      </trkpt>
      <trkpt lat="58.6881891824" lon="16.0586221609">
        <ele>108.77</ele>
        <time>2012-11-25T15:26:39Z</time>
      </trkpt>
      <trkpt lat="58.6884791963" lon="16.0585601348">
        <ele>106.36</ele>
        <time>2012-11-25T15:26:50Z</time>
      </trkpt>
      <trkpt lat="58.6886091158" lon="16.058663819">
        <ele>105.4</ele>
        <time>2012-11-25T15:27:05Z</time>
      </trkpt>
      <trkpt lat="58.6886247061" lon="16.0587102547">
        <ele>104.92</ele>
        <time>2012-11-25T15:27:12Z</time>
      </trkpt>
      <trkpt lat="58.6886441521" lon="16.0587478895">
        <ele>104.92</ele>
        <time>2012-11-25T15:27:14Z</time>
      </trkpt>
      <trkpt lat="58.6887274683" lon="16.0587622225">
        <ele>104.44</ele>
        <time>2012-11-25T15:27:20Z</time>
      </trkpt>
      <trkpt lat="58.6888246145" lon="16.0587215703">
        <ele>104.44</ele>
        <time>2012-11-25T15:27:34Z</time>
      </trkpt>
      <trkpt lat="58.6888261233" lon="16.0585983563">
        <ele>104.44</ele>
        <time>2012-11-25T15:28:02Z</time>
      </trkpt>
      <trkpt lat="58.6887102854" lon="16.0586931556">
        <ele>104.92</ele>
        <time>2012-11-25T15:28:09Z</time>
      </trkpt>
      <trkpt lat="58.6886053439" lon="16.0586180538">
        <ele>105.4</ele>
        <time>2012-11-25T15:28:19Z</time>
      </trkpt>
      <trkpt lat="58.6885292362" lon="16.0585959256">
        <ele>105.88</ele>
        <time>2012-11-25T15:28:24Z</time>
      </trkpt>
      <trkpt lat="58.6884420644" lon="16.0586187243">
        <ele>106.36</ele>
        <time>2012-11-25T15:28:29Z</time>
      </trkpt>
      <trkpt lat="58.6882562377" lon="16.0586858634">
        <ele>108.29</ele>
        <time>2012-11-25T15:28:44Z</time>
      </trkpt>
      <trkpt lat="58.6881608516" lon="16.0586929042">
        <ele>109.25</ele>
        <time>2012-11-25T15:28:52Z</time>
      </trkpt>
      <trkpt lat="58.6881279107" lon="16.0586456303">
        <ele>109.25</ele>
        <time>2012-11-25T15:28:56Z</time>
      </trkpt>
      <trkpt lat="58.688034704" lon="16.0583019722">
        <ele>108.77</ele>
        <time>2012-11-25T15:29:05Z</time>
      </trkpt>
      <trkpt lat="58.6879808083" lon="16.0581743997">
        <ele>108.77</ele>
        <time>2012-11-25T15:29:09Z</time>
      </trkpt>
      <trkpt lat="58.6878170259" lon="16.0580962803">
        <ele>109.25</ele>
        <time>2012-11-25T15:29:18Z</time>
      </trkpt>
      <trkpt lat="58.6877199635" lon="16.0577539634">
        <ele>109.73</ele>
        <time>2012-11-25T15:29:27Z</time>
      </trkpt>
      <trkpt lat="58.6877033673" lon="16.0576016642">
        <ele>109.73</ele>
        <time>2012-11-25T15:29:31Z</time>
      </trkpt>
      <trkpt lat="58.6876444425" lon="16.0573209543">
        <ele>110.21</ele>
        <time>2012-11-25T15:29:42Z</time>
      </trkpt>
      <trkpt lat="58.6875779741" lon="16.056865314">
        <ele>108.77</ele>
        <time>2012-11-25T15:29:54Z</time>
      </trkpt>
      <trkpt lat="58.6874587834" lon="16.0565208178">
        <ele>107.81</ele>
        <time>2012-11-25T15:30:05Z</time>
      </trkpt>
      <trkpt lat="58.687272286" lon="16.0561618209">
        <ele>106.84</ele>
        <time>2012-11-25T15:30:15Z</time>
      </trkpt>
      <trkpt lat="58.6871416122" lon="16.0557445697">
        <ele>105.4</ele>
        <time>2012-11-25T15:30:26Z</time>
      </trkpt>
      <trkpt lat="58.6870886385" lon="16.0555569828">
        <ele>105.88</ele>
        <time>2012-11-25T15:30:32Z</time>
      </trkpt>
      <trkpt lat="58.687118981" lon="16.0553336889">
        <ele>107.81</ele>
        <time>2012-11-25T15:30:44Z</time>
      </trkpt>
      <trkpt lat="58.6871269438" lon="16.0552668013">
        <ele>107.81</ele>
        <time>2012-11-25T15:30:48Z</time>
      </trkpt>
      <trkpt lat="58.6872135289" lon="16.0549747758">
        <ele>108.29</ele>
        <time>2012-11-25T15:30:59Z</time>
      </trkpt>
      <trkpt lat="58.6872173008" lon="16.0549159348">
        <ele>107.32</ele>
        <time>2012-11-25T15:31:04Z</time>
      </trkpt>
      <trkpt lat="58.6872226652" lon="16.0547925532">
        <ele>106.84</ele>
        <time>2012-11-25T15:31:08Z</time>
      </trkpt>
      <trkpt lat="58.6872261856" lon="16.054696748">
        <ele>105.88</ele>
        <time>2012-11-25T15:31:10Z</time>
      </trkpt>
      <trkpt lat="58.6872802489" lon="16.0543516651">
        <ele>105.88</ele>
        <time>2012-11-25T15:31:19Z</time>
      </trkpt>
      <trkpt lat="58.6872866191" lon="16.0540771578">
        <ele>103.96</ele>
        <time>2012-11-25T15:31:25Z</time>
      </trkpt>
      <trkpt lat="58.6873219907" lon="16.0539324023">
        <ele>103.48</ele>
        <time>2012-11-25T15:31:29Z</time>
      </trkpt>
      <trkpt lat="58.6873638164" lon="16.0538443923">
        <ele>102.04</ele>
        <time>2012-11-25T15:31:34Z</time>
      </trkpt>
      <trkpt lat="58.6874069832" lon="16.0538438056">
        <ele>102.04</ele>
        <time>2012-11-25T15:31:37Z</time>
      </trkpt>
      <trkpt lat="58.6875667423" lon="16.0539702047">
        <ele>104.44</ele>
        <time>2012-11-25T15:31:48Z</time>
      </trkpt>
      <trkpt lat="58.6876910459" lon="16.0539374314">
        <ele>105.88</ele>
        <time>2012-11-25T15:32:01Z</time>
      </trkpt>
      <trkpt lat="58.6878361367" lon="16.0539738089">
        <ele>108.29</ele>
        <time>2012-11-25T15:32:13Z</time>
      </trkpt>
      <trkpt lat="58.6879376415" lon="16.0540420376">
        <ele>108.29</ele>
        <time>2012-11-25T15:32:22Z</time>
      </trkpt>
      <trkpt lat="58.6881279107" lon="16.054068692">
        <ele>107.81</ele>
        <time>2012-11-25T15:32:32Z</time>
      </trkpt>
      <trkpt lat="58.6881890148" lon="16.0541121941">
        <ele>106.84</ele>
        <time>2012-11-25T15:32:35Z</time>
      </trkpt>
      <trkpt lat="58.6882947106" lon="16.0539871361">
        <ele>105.88</ele>
        <time>2012-11-25T15:32:41Z</time>
      </trkpt>
      <trkpt lat="58.6883159168" lon="16.0539404489">
        <ele>105.88</ele>
        <time>2012-11-25T15:32:43Z</time>
      </trkpt>
      <trkpt lat="58.6883538868" lon="16.0537872277">
        <ele>105.4</ele>
        <time>2012-11-25T15:32:49Z</time>
      </trkpt>
      <trkpt lat="58.6884040944" lon="16.0537017323">
        <ele>105.4</ele>
        <time>2012-11-25T15:32:53Z</time>
      </trkpt>
      <trkpt lat="58.6886731535" lon="16.0534076113">
        <ele>102.52</ele>
        <time>2012-11-25T15:33:08Z</time>
      </trkpt>
      <trkpt lat="58.6888008937" lon="16.0530657973">
        <ele>99.63</ele>
        <time>2012-11-25T15:33:18Z</time>
      </trkpt>
      <trkpt lat="58.6888129637" lon="16.0530284978">
        <ele>99.63</ele>
        <time>2012-11-25T15:33:19Z</time>
      </trkpt>
      <trkpt lat="58.6888791807" lon="16.0529405717">
        <ele>99.15</ele>
        <time>2012-11-25T15:33:24Z</time>
      </trkpt>
      <trkpt lat="58.6889460683" lon="16.0528819822">
        <ele>99.15</ele>
        <time>2012-11-25T15:33:29Z</time>
      </trkpt>
      <trkpt lat="58.6889961082" lon="16.0527569242">
        <ele>99.63</ele>
        <time>2012-11-25T15:33:34Z</time>
      </trkpt>
      <trkpt lat="58.689003149" lon="16.0526187904">
        <ele>98.67</ele>
        <time>2012-11-25T15:33:45Z</time>
      </trkpt>
      <trkpt lat="58.6889775004" lon="16.0523919761">
        <ele>98.67</ele>
        <time>2012-11-25T15:33:59Z</time>
      </trkpt>
      <trkpt lat="58.688966101" lon="16.0521600489">
        <ele>99.63</ele>
        <time>2012-11-25T15:34:12Z</time>
      </trkpt>
      <trkpt lat="58.6889514327" lon="16.0519653372">
        <ele>99.63</ele>
        <time>2012-11-25T15:34:17Z</time>
      </trkpt>
      <trkpt lat="58.6889096908" lon="16.0517469049">
        <ele>100.6</ele>
        <time>2012-11-25T15:34:24Z</time>
      </trkpt>
      <trkpt lat="58.6888831202" lon="16.0516586434">
        <ele>100.6</ele>
        <time>2012-11-25T15:34:27Z</time>
      </trkpt>
      <trkpt lat="58.6889459006" lon="16.0515118763">
        <ele>100.6</ele>
        <time>2012-11-25T15:34:32Z</time>
      </trkpt>
      <trkpt lat="58.6890013888" lon="16.0513856448">
        <ele>101.08</ele>
        <time>2012-11-25T15:34:37Z</time>
      </trkpt>
      <trkpt lat="58.6890194099" lon="16.0511828866">
        <ele>101.08</ele>
        <time>2012-11-25T15:34:44Z</time>
      </trkpt>
      <trkpt lat="58.6889464036" lon="16.051030755">
        <ele>103</ele>
        <time>2012-11-25T15:34:55Z</time>
      </trkpt>
      <trkpt lat="58.6888916697" lon="16.0510372929">
        <ele>103</ele>
        <time>2012-11-25T15:34:58Z</time>
      </trkpt>
      <trkpt lat="58.6887999717" lon="16.0510258935">
        <ele>104.44</ele>
        <time>2012-11-25T15:35:03Z</time>
      </trkpt>
      <trkpt lat="58.6886544619" lon="16.0510542244">
        <ele>103</ele>
        <time>2012-11-25T15:35:11Z</time>
      </trkpt>
      <trkpt lat="58.6885952856" lon="16.050814921">
        <ele>101.08</ele>
        <time>2012-11-25T15:35:17Z</time>
      </trkpt>
      <trkpt lat="58.6885188427" lon="16.0503807385">
        <ele>101.08</ele>
        <time>2012-11-25T15:35:27Z</time>
      </trkpt>
      <trkpt lat="58.6885112152" lon="16.0502837598">
        <ele>101.08</ele>
        <time>2012-11-25T15:35:30Z</time>
      </trkpt>
      <trkpt lat="58.6882987339" lon="16.0501153674">
        <ele>101.08</ele>
        <time>2012-11-25T15:35:42Z</time>
      </trkpt>
      <trkpt lat="58.6882210337" lon="16.050020149">
        <ele>99.63</ele>
        <time>2012-11-25T15:35:46Z</time>
      </trkpt>
      <trkpt lat="58.6881493684" lon="16.0498720407">
        <ele>98.67</ele>
        <time>2012-11-25T15:35:55Z</time>
      </trkpt>
      <trkpt lat="58.6881193612" lon="16.0498020519">
        <ele>98.67</ele>
        <time>2012-11-25T15:35:58Z</time>
      </trkpt>
      <trkpt lat="58.6880880967" lon="16.0496898182">
        <ele>98.67</ele>
        <time>2012-11-25T15:36:02Z</time>
      </trkpt>
      <trkpt lat="58.6881131586" lon="16.0495732259">
        <ele>98.67</ele>
        <time>2012-11-25T15:36:11Z</time>
      </trkpt>
      <trkpt lat="58.6881284136" lon="16.0492399614">
        <ele>99.15</ele>
        <time>2012-11-25T15:36:24Z</time>
      </trkpt>
      <trkpt lat="58.6881372146" lon="16.0490072798">
        <ele>100.11</ele>
        <time>2012-11-25T15:36:34Z</time>
      </trkpt>
      <trkpt lat="58.6882373784" lon="16.0487942956">
        <ele>98.67</ele>
        <time>2012-11-25T15:36:46Z</time>
      </trkpt>
      <trkpt lat="58.688338967" lon="16.0486456007">
        <ele>98.19</ele>
        <time>2012-11-25T15:36:56Z</time>
      </trkpt>
      <trkpt lat="58.6883657053" lon="16.048557926">
        <ele>98.67</ele>
        <time>2012-11-25T15:37:01Z</time>
      </trkpt>
      <trkpt lat="58.6883814633" lon="16.0483347997">
        <ele>98.67</ele>
        <time>2012-11-25T15:37:12Z</time>
      </trkpt>
      <trkpt lat="58.6884155776" lon="16.0479762219">
        <ele>100.11</ele>
        <time>2012-11-25T15:37:28Z</time>
      </trkpt>
      <trkpt lat="58.6884368677" lon="16.047602389">
        <ele>101.08</ele>
        <time>2012-11-25T15:37:43Z</time>
      </trkpt>
      <trkpt lat="58.6884346884" lon="16.0474443901">
        <ele>99.63</ele>
        <time>2012-11-25T15:37:48Z</time>
      </trkpt>
      <trkpt lat="58.6884472612" lon="16.0473948531">
        <ele>99.15</ele>
        <time>2012-11-25T15:37:50Z</time>
      </trkpt>
      <trkpt lat="58.6885996442" lon="16.046977099">
        <ele>98.67</ele>
        <time>2012-11-25T15:38:06Z</time>
      </trkpt>
      <trkpt lat="58.6886441521" lon="16.0468991473">
        <ele>98.67</ele>
        <time>2012-11-25T15:38:18Z</time>
      </trkpt>
      <trkpt lat="58.6886931863" lon="16.046858076">
        <ele>98.67</ele>
        <time>2012-11-25T15:38:55Z</time>
      </trkpt>
      <trkpt lat="58.6887166556" lon="16.0469758417">
        <ele>98.19</ele>
        <time>2012-11-25T15:39:26Z</time>
      </trkpt>
      <trkpt lat="58.6886736564" lon="16.046960922">
        <ele>98.67</ele>
        <time>2012-11-25T15:40:01Z</time>
      </trkpt>
      <trkpt lat="58.6886869837" lon="16.0468723252">
        <ele>98.67</ele>
        <time>2012-11-25T15:40:36Z</time>
      </trkpt>
      <trkpt lat="58.6886766739" lon="16.0468983091">
        <ele>99.63</ele>
        <time>2012-11-25T15:41:12Z</time>
      </trkpt>
      <trkpt lat="58.6886388715" lon="16.0469584074">
        <ele>100.11</ele>
        <time>2012-11-25T15:41:49Z</time>
      </trkpt>
      <trkpt lat="58.6886384524" lon="16.0469986405">
        <ele>100.11</ele>
        <time>2012-11-25T15:42:35Z</time>
      </trkpt>
      <trkpt lat="58.6886620056" lon="16.0469086189">
        <ele>101.08</ele>
        <time>2012-11-25T15:43:17Z</time>
      </trkpt>
      <trkpt lat="58.6886581499" lon="16.0469287354">
        <ele>101.56</ele>
        <time>2012-11-25T15:43:53Z</time>
      </trkpt>
      <trkpt lat="58.6886809487" lon="16.0469657835">
        <ele>101.56</ele>
        <time>2012-11-25T15:44:32Z</time>
      </trkpt>
      <trkpt lat="58.6886986345" lon="16.0469156597">
        <ele>102.04</ele>
        <time>2012-11-25T15:45:11Z</time>
      </trkpt>
      <trkpt lat="58.6886780988" lon="16.0468452517">
        <ele>102.04</ele>
        <time>2012-11-25T15:45:47Z</time>
      </trkpt>
      <trkpt lat="58.6886730697" lon="16.0468330979">
        <ele>102.04</ele>
        <time>2012-11-25T15:46:21Z</time>
      </trkpt>
      <trkpt lat="58.6886901688" lon="16.046890514">
        <ele>103</ele>
        <time>2012-11-25T15:46:57Z</time>
      </trkpt>
      <trkpt lat="58.6886861455" lon="16.0468700621">
        <ele>103</ele>
        <time>2012-11-25T15:47:12Z</time>
      </trkpt>
      <trkpt lat="58.6884601694" lon="16.0468548071">
        <ele>102.52</ele>
        <time>2012-11-25T15:47:21Z</time>
      </trkpt>
      <trkpt lat="58.6883555632" lon="16.0466076247">
        <ele>102.04</ele>
        <time>2012-11-25T15:47:25Z</time>
      </trkpt>
      <trkpt lat="58.6882997397" lon="16.0462525673">
        <ele>102.52</ele>
        <time>2012-11-25T15:47:29Z</time>
      </trkpt>
      <trkpt lat="58.6880580895" lon="16.0454218369">
        <ele>103.96</ele>
        <time>2012-11-25T15:47:39Z</time>
      </trkpt>
      <trkpt lat="58.687713258" lon="16.0444803815">
        <ele>105.4</ele>
        <time>2012-11-25T15:47:51Z</time>
      </trkpt>
      <trkpt lat="58.6876589432" lon="16.0443181079">
        <ele>105.4</ele>
        <time>2012-11-25T15:47:53Z</time>
      </trkpt>
      <trkpt lat="58.6875938997" lon="16.0439474601">
        <ele>105.4</ele>
        <time>2012-11-25T15:47:57Z</time>
      </trkpt>
      <trkpt lat="58.6875933129" lon="16.0435821768">
        <ele>104.92</ele>
        <time>2012-11-25T15:48:01Z</time>
      </trkpt>
      <trkpt lat="58.6877346318" lon="16.0421469435">
        <ele>107.32</ele>
        <time>2012-11-25T15:48:17Z</time>
      </trkpt>
      <trkpt lat="58.6877542455" lon="16.0408930108">
        <ele>105.4</ele>
        <time>2012-11-25T15:48:28Z</time>
      </trkpt>
      <trkpt lat="58.6879643798" lon="16.0398848355">
        <ele>105.88</ele>
        <time>2012-11-25T15:48:38Z</time>
      </trkpt>
      <trkpt lat="58.6880725063" lon="16.039344538">
        <ele>107.32</ele>
        <time>2012-11-25T15:48:45Z</time>
      </trkpt>
      <trkpt lat="58.6880918685" lon="16.0391715355">
        <ele>107.32</ele>
        <time>2012-11-25T15:48:47Z</time>
      </trkpt>
      <trkpt lat="58.6879951414" lon="16.0384852253">
        <ele>106.36</ele>
        <time>2012-11-25T15:48:54Z</time>
      </trkpt>
      <trkpt lat="58.6877390742" lon="16.037977282">
        <ele>109.25</ele>
        <time>2012-11-25T15:49:05Z</time>
      </trkpt>
      <trkpt lat="58.687443696" lon="16.0374450311">
        <ele>106.84</ele>
        <time>2012-11-25T15:49:13Z</time>
      </trkpt>
      <trkpt lat="58.6871022172" lon="16.0368264467">
        <ele>105.88</ele>
        <time>2012-11-25T15:49:21Z</time>
      </trkpt>
      <trkpt lat="58.6870598886" lon="16.0363138933">
        <ele>105.4</ele>
        <time>2012-11-25T15:49:26Z</time>
      </trkpt>
      <trkpt lat="58.6872640718" lon="16.0353329591">
        <ele>103.96</ele>
        <time>2012-11-25T15:49:35Z</time>
      </trkpt>
      <trkpt lat="58.6873986851" lon="16.0350119323">
        <ele>105.88</ele>
        <time>2012-11-25T15:49:39Z</time>
      </trkpt>
      <trkpt lat="58.6875537504" lon="16.0348321404">
        <ele>108.29</ele>
        <time>2012-11-25T15:49:44Z</time>
      </trkpt>
      <trkpt lat="58.6877956521" lon="16.0346154682">
        <ele>111.17</ele>
        <time>2012-11-25T15:49:55Z</time>
      </trkpt>
      <trkpt lat="58.6880303454" lon="16.0343889054">
        <ele>110.69</ele>
        <time>2012-11-25T15:50:02Z</time>
      </trkpt>
      <trkpt lat="58.6881943792" lon="16.0341454949">
        <ele>109.73</ele>
        <time>2012-11-25T15:50:06Z</time>
      </trkpt>
      <trkpt lat="58.6882763542" lon="16.0339725763">
        <ele>108.77</ele>
        <time>2012-11-25T15:50:08Z</time>
      </trkpt>
      <trkpt lat="58.6885926872" lon="16.0336364619">
        <ele>105.88</ele>
        <time>2012-11-25T15:50:13Z</time>
      </trkpt>
      <trkpt lat="58.6890516803" lon="16.0334126651">
        <ele>104.44</ele>
        <time>2012-11-25T15:50:20Z</time>
      </trkpt>
      <trkpt lat="58.6893743835" lon="16.0327818431">
        <ele>104.92</ele>
        <time>2012-11-25T15:50:28Z</time>
      </trkpt>
      <trkpt lat="58.6894217413" lon="16.0325781628">
        <ele>104.44</ele>
        <time>2012-11-25T15:50:30Z</time>
      </trkpt>
      <trkpt lat="58.689558534" lon="16.0318761785">
        <ele>104.44</ele>
        <time>2012-11-25T15:50:39Z</time>
      </trkpt>
      <trkpt lat="58.6895314604" lon="16.0318945348">
        <ele>103</ele>
        <time>2012-11-25T15:50:58Z</time>
      </trkpt>
      <trkpt lat="58.6895481404" lon="16.0318950377">
        <ele>103.96</ele>
        <time>2012-11-25T15:51:05Z</time>
      </trkpt>
      <trkpt lat="58.6896633077" lon="16.031785151">
        <ele>103.96</ele>
        <time>2012-11-25T15:51:10Z</time>
      </trkpt>
      <trkpt lat="58.690154152" lon="16.0317566525">
        <ele>105.88</ele>
        <time>2012-11-25T15:51:20Z</time>
      </trkpt>
      <trkpt lat="58.6906175874" lon="16.0317569878">
        <ele>107.81</ele>
        <time>2012-11-25T15:51:32Z</time>
      </trkpt>
      <trkpt lat="58.6913551111" lon="16.0319397971">
        <ele>106.36</ele>
        <time>2012-11-25T15:51:44Z</time>
      </trkpt>
      <trkpt lat="58.692116607" lon="16.0320177488">
        <ele>106.84</ele>
        <time>2012-11-25T15:51:58Z</time>
      </trkpt>
      <trkpt lat="58.6928449105" lon="16.0317634419">
        <ele>107.81</ele>
        <time>2012-11-25T15:52:12Z</time>
      </trkpt>
      <trkpt lat="58.6932047457" lon="16.0313181113">
        <ele>110.21</ele>
        <time>2012-11-25T15:52:25Z</time>
      </trkpt>
      <trkpt lat="58.6935058236" lon="16.0309643112">
        <ele>112.13</ele>
        <time>2012-11-25T15:52:36Z</time>
      </trkpt>
      <trkpt lat="58.6939727794" lon="16.0305323079">
        <ele>113.09</ele>
        <time>2012-11-25T15:52:49Z</time>
      </trkpt>
      <trkpt lat="58.6945509631" lon="16.0301938467">
        <ele>113.09</ele>
        <time>2012-11-25T15:53:03Z</time>
      </trkpt>
      <trkpt lat="58.6948426533" lon="16.0300175752">
        <ele>112.61</ele>
        <time>2012-11-25T15:53:10Z</time>
      </trkpt>
      <trkpt lat="58.6953756586" lon="16.0297460854">
        <ele>108.77</ele>
        <time>2012-11-25T15:53:19Z</time>
      </trkpt>
      <trkpt lat="58.6955074221" lon="16.0296617635">
        <ele>108.29</ele>
        <time>2012-11-25T15:53:21Z</time>
      </trkpt>
      <trkpt lat="58.6959805805" lon="16.0293376353">
        <ele>106.84</ele>
        <time>2012-11-25T15:53:29Z</time>
      </trkpt>
      <trkpt lat="58.6964041181" lon="16.028966736">
        <ele>104.92</ele>
        <time>2012-11-25T15:53:37Z</time>
      </trkpt>
      <trkpt lat="58.6965264939" lon="16.0286046378">
        <ele>103</ele>
        <time>2012-11-25T15:53:41Z</time>
      </trkpt>
      <trkpt lat="58.6965228897" lon="16.028484609">
        <ele>103</ele>
        <time>2012-11-25T15:53:42Z</time>
      </trkpt>
      <trkpt lat="58.6965897772" lon="16.0279274639">
        <ele>101.56</ele>
        <time>2012-11-25T15:53:47Z</time>
      </trkpt>
      <trkpt lat="58.6966846604" lon="16.027618926">
        <ele>101.08</ele>
        <time>2012-11-25T15:53:50Z</time>
      </trkpt>
      <trkpt lat="58.6966845766" lon="16.027080724">
        <ele>100.6</ele>
        <time>2012-11-25T15:53:55Z</time>
      </trkpt>
      <trkpt lat="58.6965585127" lon="16.0259551182">
        <ele>102.52</ele>
        <time>2012-11-25T15:54:06Z</time>
      </trkpt>
      <trkpt lat="58.6965128314" lon="16.0252795368">
        <ele>103.48</ele>
        <time>2012-11-25T15:54:13Z</time>
      </trkpt>
      <trkpt lat="58.6964327004" lon="16.0247427598">
        <ele>103</ele>
        <time>2012-11-25T15:54:18Z</time>
      </trkpt>
      <trkpt lat="58.6963131744" lon="16.0241908953">
        <ele>101.56</ele>
        <time>2012-11-25T15:54:23Z</time>
      </trkpt>
      <trkpt lat="58.6962634698" lon="16.0239665117">
        <ele>101.56</ele>
        <time>2012-11-25T15:54:25Z</time>
      </trkpt>
      <trkpt lat="58.6961659882" lon="16.0236791801">
        <ele>101.08</ele>
        <time>2012-11-25T15:54:28Z</time>
      </trkpt>
      <trkpt lat="58.6959124357" lon="16.0233830474">
        <ele>101.56</ele>
        <time>2012-11-25T15:54:33Z</time>
      </trkpt>
      <trkpt lat="58.6956276186" lon="16.022568997">
        <ele>101.08</ele>
        <time>2012-11-25T15:54:42Z</time>
      </trkpt>
      <trkpt lat="58.6956335697" lon="16.0224513151">
        <ele>101.08</ele>
        <time>2012-11-25T15:54:43Z</time>
      </trkpt>
      <trkpt lat="58.6957613938" lon="16.0212736577">
        <ele>102.04</ele>
        <time>2012-11-25T15:54:55Z</time>
      </trkpt>
      <trkpt lat="58.6958308797" lon="16.0208165087">
        <ele>102.04</ele>
        <time>2012-11-25T15:55:00Z</time>
      </trkpt>
      <trkpt lat="58.6960561015" lon="16.0199716967">
        <ele>103.48</ele>
        <time>2012-11-25T15:55:11Z</time>
      </trkpt>
      <trkpt lat="58.696141094" lon="16.0196828563">
        <ele>103.48</ele>
        <time>2012-11-25T15:55:15Z</time>
      </trkpt>
      <trkpt lat="58.696342092" lon="16.0188973881">
        <ele>104.92</ele>
        <time>2012-11-25T15:55:26Z</time>
      </trkpt>
      <trkpt lat="58.6964465305" lon="16.0182875209">
        <ele>104.92</ele>
        <time>2012-11-25T15:55:33Z</time>
      </trkpt>
      <trkpt lat="58.6964928824" lon="16.0179125145">
        <ele>104.44</ele>
        <time>2012-11-25T15:55:37Z</time>
      </trkpt>
      <trkpt lat="58.6965440959" lon="16.0176298767">
        <ele>104.92</ele>
        <time>2012-11-25T15:55:40Z</time>
      </trkpt>
      <trkpt lat="58.6968412343" lon="16.0168931074">
        <ele>107.81</ele>
        <time>2012-11-25T15:55:51Z</time>
      </trkpt>
      <trkpt lat="58.696934022" lon="16.0166289937">
        <ele>107.81</ele>
        <time>2012-11-25T15:55:55Z</time>
      </trkpt>
      <trkpt lat="58.6970467586" lon="16.0159514006">
        <ele>106.84</ele>
        <time>2012-11-25T15:56:02Z</time>
      </trkpt>
      <trkpt lat="58.6972742435" lon="16.0149905831">
        <ele>103.48</ele>
        <time>2012-11-25T15:56:11Z</time>
      </trkpt>
      <trkpt lat="58.6978373397" lon="16.0132245161">
        <ele>101.08</ele>
        <time>2012-11-25T15:56:28Z</time>
      </trkpt>
      <trkpt lat="58.6981137749" lon="16.0119116586">
        <ele>99.15</ele>
        <time>2012-11-25T15:56:39Z</time>
      </trkpt>
      <trkpt lat="58.6982662417" lon="16.0111706983">
        <ele>98.19</ele>
        <time>2012-11-25T15:56:45Z</time>
      </trkpt>
      <trkpt lat="58.6982758809" lon="16.0099973995">
        <ele>98.19</ele>
        <time>2012-11-25T15:56:55Z</time>
      </trkpt>
      <trkpt lat="58.698088713" lon="16.0096220579">
        <ele>98.19</ele>
        <time>2012-11-25T15:57:00Z</time>
      </trkpt>
      <trkpt lat="58.6970878299" lon="16.0096518975">
        <ele>95.31</ele>
        <time>2012-11-25T15:57:16Z</time>
      </trkpt>
      <trkpt lat="58.6969624367" lon="16.0096696671">
        <ele>95.31</ele>
        <time>2012-11-25T15:57:18Z</time>
      </trkpt>
      <trkpt lat="58.6966445111" lon="16.0093291942">
        <ele>93.39</ele>
        <time>2012-11-25T15:57:24Z</time>
      </trkpt>
      <trkpt lat="58.6963841692" lon="16.0087519325">
        <ele>91.46</ele>
        <time>2012-11-25T15:57:30Z</time>
      </trkpt>
      <trkpt lat="58.6956364196" lon="16.0079496168">
        <ele>90.5</ele>
        <time>2012-11-25T15:57:44Z</time>
      </trkpt>
      <trkpt lat="58.6955338251" lon="16.0078330245">
        <ele>90.02</ele>
        <time>2012-11-25T15:57:46Z</time>
      </trkpt>
      <trkpt lat="58.6951179989" lon="16.0075144283">
        <ele>88.58</ele>
        <time>2012-11-25T15:57:53Z</time>
      </trkpt>
      <trkpt lat="58.6947874166" lon="16.007421976">
        <ele>88.1</ele>
        <time>2012-11-25T15:57:58Z</time>
      </trkpt>
      <trkpt lat="58.6945207044" lon="16.007371936">
        <ele>89.06</ele>
        <time>2012-11-25T15:58:03Z</time>
      </trkpt>
      <trkpt lat="58.6936818436" lon="16.0072503984">
        <ele>86.66</ele>
        <time>2012-11-25T15:58:16Z</time>
      </trkpt>
      <trkpt lat="58.6930541229" lon="16.0066052433">
        <ele>86.18</ele>
        <time>2012-11-25T15:58:27Z</time>
      </trkpt>
      <trkpt lat="58.6929115467" lon="16.006195033">
        <ele>85.69</ele>
        <time>2012-11-25T15:58:31Z</time>
      </trkpt>
      <trkpt lat="58.6928733252" lon="16.0059077851">
        <ele>83.77</ele>
        <time>2012-11-25T15:58:33Z</time>
      </trkpt>
      <trkpt lat="58.6927453335" lon="16.0055395681">
        <ele>82.33</ele>
        <time>2012-11-25T15:58:36Z</time>
      </trkpt>
      <trkpt lat="58.6926875822" lon="16.0054341238">
        <ele>81.37</ele>
        <time>2012-11-25T15:58:37Z</time>
      </trkpt>
      <trkpt lat="58.6925674696" lon="16.0052304436">
        <ele>80.41</ele>
        <time>2012-11-25T15:58:39Z</time>
      </trkpt>
      <trkpt lat="58.6922502145" lon="16.0047248472">
        <ele>77.52</ele>
        <time>2012-11-25T15:58:44Z</time>
      </trkpt>
      <trkpt lat="58.6918648984" lon="16.0041523632">
        <ele>74.16</ele>
        <time>2012-11-25T15:58:50Z</time>
      </trkpt>
      <trkpt lat="58.6916625593" lon="16.0038937815">
        <ele>72.72</ele>
        <time>2012-11-25T15:58:53Z</time>
      </trkpt>
      <trkpt lat="58.6913642474" lon="16.0036175139">
        <ele>70.79</ele>
        <time>2012-11-25T15:58:57Z</time>
      </trkpt>
      <trkpt lat="58.6909649335" lon="16.0035181884">
        <ele>70.31</ele>
        <time>2012-11-25T15:59:02Z</time>
      </trkpt>
      <trkpt lat="58.6900251545" lon="16.0036841501">
        <ele>67.43</ele>
        <time>2012-11-25T15:59:14Z</time>
      </trkpt>
      <trkpt lat="58.6892266944" lon="16.0040480085">
        <ele>64.07</ele>
        <time>2012-11-25T15:59:24Z</time>
      </trkpt>
      <trkpt lat="58.6883799545" lon="16.0043213423">
        <ele>64.07</ele>
        <time>2012-11-25T15:59:36Z</time>
      </trkpt>
      <trkpt lat="58.6881765258" lon="16.0042505991">
        <ele>64.07</ele>
        <time>2012-11-25T15:59:39Z</time>
      </trkpt>
      <trkpt lat="58.6880544852" lon="16.0041712224">
        <ele>64.55</ele>
        <time>2012-11-25T15:59:41Z</time>
      </trkpt>
      <trkpt lat="58.6875531636" lon="16.0032283422">
        <ele>65.03</ele>
        <time>2012-11-25T15:59:52Z</time>
      </trkpt>
      <trkpt lat="58.687250996" lon="16.0017553065">
        <ele>67.43</ele>
        <time>2012-11-25T16:00:07Z</time>
      </trkpt>
      <trkpt lat="58.6872574501" lon="16.0011843313">
        <ele>69.83</ele>
        <time>2012-11-25T16:00:13Z</time>
      </trkpt>
      <trkpt lat="58.6872715317" lon="16.001024656">
        <ele>70.79</ele>
        <time>2012-11-25T16:00:15Z</time>
      </trkpt>
      <trkpt lat="58.6872870382" lon="16.0006832611">
        <ele>71.76</ele>
        <time>2012-11-25T16:00:19Z</time>
      </trkpt>
      <trkpt lat="58.6872978508" lon="16.0003135353">
        <ele>71.76</ele>
        <time>2012-11-25T16:00:23Z</time>
      </trkpt>
      <trkpt lat="58.6872934084" lon="15.999368811">
        <ele>75.6</ele>
        <time>2012-11-25T16:00:35Z</time>
      </trkpt>
      <trkpt lat="58.6871589627" lon="15.9979993757">
        <ele>74.64</ele>
        <time>2012-11-25T16:00:49Z</time>
      </trkpt>
      <trkpt lat="58.6869901512" lon="15.9966470394">
        <ele>72.72</ele>
        <time>2012-11-25T16:01:00Z</time>
      </trkpt>
      <trkpt lat="58.6865126342" lon="15.9954698849">
        <ele>71.76</ele>
        <time>2012-11-25T16:01:11Z</time>
      </trkpt>
      <trkpt lat="58.6856427602" lon="15.9944249969">
        <ele>69.83</ele>
        <time>2012-11-25T16:01:26Z</time>
      </trkpt>
      <trkpt lat="58.6854958255" lon="15.9942150302">
        <ele>69.83</ele>
        <time>2012-11-25T16:01:29Z</time>
      </trkpt>
      <trkpt lat="58.6854087375" lon="15.9940819256">
        <ele>70.31</ele>
        <time>2012-11-25T16:01:31Z</time>
      </trkpt>
      <trkpt lat="58.6846847087" lon="15.9931222815">
        <ele>70.31</ele>
        <time>2012-11-25T16:01:46Z</time>
      </trkpt>
      <trkpt lat="58.6844055075" lon="15.9925916232">
        <ele>69.83</ele>
        <time>2012-11-25T16:01:52Z</time>
      </trkpt>
      <trkpt lat="58.6837130785" lon="15.9912562184">
        <ele>70.79</ele>
        <time>2012-11-25T16:02:08Z</time>
      </trkpt>
      <trkpt lat="58.6834917963" lon="15.9909802023">
        <ele>69.83</ele>
        <time>2012-11-25T16:02:12Z</time>
      </trkpt>
      <trkpt lat="58.6833537463" lon="15.9909049328">
        <ele>69.83</ele>
        <time>2012-11-25T16:02:14Z</time>
      </trkpt>
      <trkpt lat="58.6829849426" lon="15.9909410588">
        <ele>67.91</ele>
        <time>2012-11-25T16:02:19Z</time>
      </trkpt>
      <trkpt lat="58.6827542726" lon="15.991060501">
        <ele>66.95</ele>
        <time>2012-11-25T16:02:22Z</time>
      </trkpt>
      <trkpt lat="58.682421511" lon="15.9911842179">
        <ele>64.55</ele>
        <time>2012-11-25T16:02:26Z</time>
      </trkpt>
      <trkpt lat="58.6820025835" lon="15.9913600702">
        <ele>61.18</ele>
        <time>2012-11-25T16:02:31Z</time>
      </trkpt>
      <trkpt lat="58.681915747" lon="15.9913844615">
        <ele>61.18</ele>
        <time>2012-11-25T16:02:32Z</time>
      </trkpt>
      <trkpt lat="58.6818284076" lon="15.9913975373">
        <ele>60.7</ele>
        <time>2012-11-25T16:02:33Z</time>
      </trkpt>
      <trkpt lat="58.6816495378" lon="15.9913811926">
        <ele>59.74</ele>
        <time>2012-11-25T16:02:35Z</time>
      </trkpt>
      <trkpt lat="58.6813918781" lon="15.9912355989">
        <ele>58.78</ele>
        <time>2012-11-25T16:02:38Z</time>
      </trkpt>
      <trkpt lat="58.6809814163" lon="15.9909632709">
        <ele>58.3</ele>
        <time>2012-11-25T16:02:43Z</time>
      </trkpt>
      <trkpt lat="58.6801874824" lon="15.9910838865">
        <ele>60.22</ele>
        <time>2012-11-25T16:02:54Z</time>
      </trkpt>
      <trkpt lat="58.6800655257" lon="15.9910958726">
        <ele>60.7</ele>
        <time>2012-11-25T16:02:56Z</time>
      </trkpt>
      <trkpt lat="58.6797367036" lon="15.9910684638">
        <ele>62.14</ele>
        <time>2012-11-25T16:03:02Z</time>
      </trkpt>
      <trkpt lat="58.6795014236" lon="15.9911291488">
        <ele>62.62</ele>
        <time>2012-11-25T16:03:07Z</time>
      </trkpt>
      <trkpt lat="58.6792459432" lon="15.9913444798">
        <ele>64.07</ele>
        <time>2012-11-25T16:03:13Z</time>
      </trkpt>
      <trkpt lat="58.6791433487" lon="15.9915152192">
        <ele>65.03</ele>
        <time>2012-11-25T16:03:16Z</time>
      </trkpt>
      <trkpt lat="58.6787945777" lon="15.9924593568">
        <ele>67.91</ele>
        <time>2012-11-25T16:03:31Z</time>
      </trkpt>
      <trkpt lat="58.6785879638" lon="15.9931218624">
        <ele>70.79</ele>
        <time>2012-11-25T16:03:42Z</time>
      </trkpt>
      <trkpt lat="58.678530883" lon="15.9932124708">
        <ele>70.79</ele>
        <time>2012-11-25T16:03:44Z</time>
      </trkpt>
      <trkpt lat="58.6784562841" lon="15.9932672884">
        <ele>70.79</ele>
        <time>2012-11-25T16:03:46Z</time>
      </trkpt>
      <trkpt lat="58.6783226766" lon="15.993311042">
        <ele>70.31</ele>
        <time>2012-11-25T16:03:49Z</time>
      </trkpt>
      <trkpt lat="58.6774743441" lon="15.9932996426">
        <ele>69.35</ele>
        <time>2012-11-25T16:04:05Z</time>
      </trkpt>
      <trkpt lat="58.6764898058" lon="15.9928731713">
        <ele>66.95</ele>
        <time>2012-11-25T16:04:19Z</time>
      </trkpt>
      <trkpt lat="58.6760806013" lon="15.9926781245">
        <ele>68.39</ele>
        <time>2012-11-25T16:04:26Z</time>
      </trkpt>
      <trkpt lat="58.6758630909" lon="15.9926590137">
        <ele>69.35</ele>
        <time>2012-11-25T16:04:31Z</time>
      </trkpt>
      <trkpt lat="58.675153479" lon="15.9925693274">
        <ele>72.72</ele>
        <time>2012-11-25T16:04:47Z</time>
      </trkpt>
      <trkpt lat="58.6749395728" lon="15.9925259929">
        <ele>73.2</ele>
        <time>2012-11-25T16:04:52Z</time>
      </trkpt>
      <trkpt lat="58.674490219" lon="15.9923891164">
        <ele>73.68</ele>
        <time>2012-11-25T16:05:02Z</time>
      </trkpt>
      <trkpt lat="58.6739801802" lon="15.9916651715">
        <ele>71.27</ele>
        <time>2012-11-25T16:05:12Z</time>
      </trkpt>
      <trkpt lat="58.673821846" lon="15.9907001629">
        <ele>69.83</ele>
        <time>2012-11-25T16:05:19Z</time>
      </trkpt>
      <trkpt lat="58.6737549584" lon="15.9892313182">
        <ele>69.35</ele>
        <time>2012-11-25T16:05:30Z</time>
      </trkpt>
      <trkpt lat="58.6736076046" lon="15.9885388892">
        <ele>69.35</ele>
        <time>2012-11-25T16:05:36Z</time>
      </trkpt>
      <trkpt lat="58.67337442" lon="15.9874455538">
        <ele>67.91</ele>
        <time>2012-11-25T16:05:45Z</time>
      </trkpt>
      <trkpt lat="58.6728050373" lon="15.9867432341">
        <ele>65.99</ele>
        <time>2012-11-25T16:05:54Z</time>
      </trkpt>
      <trkpt lat="58.6727281753" lon="15.9867615905">
        <ele>65.51</ele>
        <time>2012-11-25T16:05:55Z</time>
      </trkpt>
      <trkpt lat="58.6723606288" lon="15.9869348444">
        <ele>65.03</ele>
        <time>2012-11-25T16:06:00Z</time>
      </trkpt>
      <trkpt lat="58.6717442237" lon="15.9876940772">
        <ele>66.95</ele>
        <time>2012-11-25T16:06:12Z</time>
      </trkpt>
      <trkpt lat="58.6717053317" lon="15.9877542593">
        <ele>67.43</ele>
        <time>2012-11-25T16:06:13Z</time>
      </trkpt>
      <trkpt lat="58.67131331" lon="15.9892469086">
        <ele>66.95</ele>
        <time>2012-11-25T16:06:29Z</time>
      </trkpt>
      <trkpt lat="58.6712872423" lon="15.9893576335">
        <ele>66.95</ele>
        <time>2012-11-25T16:06:30Z</time>
      </trkpt>
      <trkpt lat="58.670878876" lon="15.989755271">
        <ele>64.55</ele>
        <time>2012-11-25T16:06:37Z</time>
      </trkpt>
      <trkpt lat="58.6704747006" lon="15.989759462">
        <ele>65.03</ele>
        <time>2012-11-25T16:06:43Z</time>
      </trkpt>
      <trkpt lat="58.6701675039" lon="15.9900380764">
        <ele>65.51</ele>
        <time>2012-11-25T16:06:49Z</time>
      </trkpt>
      <trkpt lat="58.6700986046" lon="15.9901953209">
        <ele>65.99</ele>
        <time>2012-11-25T16:06:51Z</time>
      </trkpt>
      <trkpt lat="58.6699930765" lon="15.9905258194">
        <ele>66.47</ele>
        <time>2012-11-25T16:06:55Z</time>
      </trkpt>
      <trkpt lat="58.6698117759" lon="15.9911116306">
        <ele>67.43</ele>
        <time>2012-11-25T16:07:02Z</time>
      </trkpt>
      <trkpt lat="58.6696648411" lon="15.9915108606">
        <ele>67.91</ele>
        <time>2012-11-25T16:07:07Z</time>
      </trkpt>
      <trkpt lat="58.6695211753" lon="15.9919109289">
        <ele>68.39</ele>
        <time>2012-11-25T16:07:12Z</time>
      </trkpt>
      <trkpt lat="58.6694233585" lon="15.9921408445">
        <ele>68.39</ele>
        <time>2012-11-25T16:07:15Z</time>
      </trkpt>
      <trkpt lat="58.6692115478" lon="15.9925760329">
        <ele>68.39</ele>
        <time>2012-11-25T16:07:21Z</time>
      </trkpt>
      <trkpt lat="58.6690489389" lon="15.9928507078">
        <ele>68.39</ele>
        <time>2012-11-25T16:07:25Z</time>
      </trkpt>
      <trkpt lat="58.6689448357" lon="15.9930872452">
        <ele>68.87</ele>
        <time>2012-11-25T16:07:28Z</time>
      </trkpt>
      <trkpt lat="58.6684394907" lon="15.9942330513">
        <ele>69.35</ele>
        <time>2012-11-25T16:07:43Z</time>
      </trkpt>
      <trkpt lat="58.6679251771" lon="15.9953674581">
        <ele>70.31</ele>
        <time>2012-11-25T16:07:59Z</time>
      </trkpt>
      <trkpt lat="58.6677051522" lon="15.9958456457">
        <ele>72.72</ele>
        <time>2012-11-25T16:08:08Z</time>
      </trkpt>
      <trkpt lat="58.6675239354" lon="15.9962238371">
        <ele>72.72</ele>
        <time>2012-11-25T16:08:13Z</time>
      </trkpt>
      <trkpt lat="58.6672689579" lon="15.9965355601">
        <ele>72.24</ele>
        <time>2012-11-25T16:08:18Z</time>
      </trkpt>
      <trkpt lat="58.6671371106" lon="15.9966084827">
        <ele>72.24</ele>
        <time>2012-11-25T16:08:20Z</time>
      </trkpt>
      <trkpt lat="58.6665714998" lon="15.9965468757">
        <ele>72.24</ele>
        <time>2012-11-25T16:08:29Z</time>
      </trkpt>
      <trkpt lat="58.6662149336" lon="15.9967083111">
        <ele>72.72</ele>
        <time>2012-11-25T16:08:35Z</time>
      </trkpt>
      <trkpt lat="58.6660097446" lon="15.9971406497">
        <ele>72.72</ele>
        <time>2012-11-25T16:08:40Z</time>
      </trkpt>
      <trkpt lat="58.6659336369" lon="15.9973297454">
        <ele>73.2</ele>
        <time>2012-11-25T16:08:42Z</time>
      </trkpt>
      <trkpt lat="58.6655265279" lon="15.9987421799">
        <ele>73.68</ele>
        <time>2012-11-25T16:08:56Z</time>
      </trkpt>
      <trkpt lat="58.6653327383" lon="15.9992180206">
        <ele>73.68</ele>
        <time>2012-11-25T16:09:02Z</time>
      </trkpt>
      <trkpt lat="58.6647515371" lon="16.0000326578">
        <ele>75.6</ele>
        <time>2012-11-25T16:09:17Z</time>
      </trkpt>
      <trkpt lat="58.6645620223" lon="16.0002578795">
        <ele>76.08</ele>
        <time>2012-11-25T16:09:22Z</time>
      </trkpt>
      <trkpt lat="58.6642674822" lon="16.000568429">
        <ele>76.56</ele>
        <time>2012-11-25T16:09:29Z</time>
      </trkpt>
      <trkpt lat="58.6639265064" lon="16.0009195469">
        <ele>76.56</ele>
        <time>2012-11-25T16:09:37Z</time>
      </trkpt>
      <trkpt lat="58.66350892" lon="16.0014186893">
        <ele>77.52</ele>
        <time>2012-11-25T16:09:47Z</time>
      </trkpt>
      <trkpt lat="58.6633604765" lon="16.0016459227">
        <ele>78</ele>
        <time>2012-11-25T16:09:51Z</time>
      </trkpt>
      <trkpt lat="58.6631826963" lon="16.0019414686">
        <ele>77.52</ele>
        <time>2012-11-25T16:09:56Z</time>
      </trkpt>
      <trkpt lat="58.6627228651" lon="16.0033232253">
        <ele>78</ele>
        <time>2012-11-25T16:10:13Z</time>
      </trkpt>
      <trkpt lat="58.6624886747" lon="16.0040252935">
        <ele>78</ele>
        <time>2012-11-25T16:10:22Z</time>
      </trkpt>
      <trkpt lat="58.6620989162" lon="16.005195491">
        <ele>78</ele>
        <time>2012-11-25T16:10:37Z</time>
      </trkpt>
      <trkpt lat="58.6620453559" lon="16.0053544957">
        <ele>78.48</ele>
        <time>2012-11-25T16:10:39Z</time>
      </trkpt>
      <trkpt lat="58.6619730201" lon="16.0055944696">
        <ele>78</ele>
        <time>2012-11-25T16:10:42Z</time>
      </trkpt>
      <trkpt lat="58.6617913004" lon="16.0059840605">
        <ele>78</ele>
        <time>2012-11-25T16:10:50Z</time>
      </trkpt>
      <trkpt lat="58.6617535818" lon="16.005957406">
        <ele>78.48</ele>
        <time>2012-11-25T16:10:58Z</time>
      </trkpt>
      <trkpt lat="58.6617736984" lon="16.0059890896">
        <ele>78.97</ele>
        <time>2012-11-25T16:11:35Z</time>
      </trkpt>
    </trkseg>
  </trk>
</gpx>